sensor_id;sensor_type;location;lat;lon;timestamp;temperature;humidity
12060;DHT22;6091;51.432;6.880;2023-09-30T00:00:27;26.40;46.90
12060;DHT22;6091;51.432;6.880;2023-09-30T00:02:54;26.40;46.90
12060;DHT22;6091;51.432;6.880;2023-09-30T00:05:21;26.40;46.90
12060;DHT22;6091;51.432;6.880;2023-09-30T00:07:48;26.40;46.90
12060;DHT22;6091;51.432;6.880;2023-09-30T00:10:17;26.40;46.90
12060;DHT22;6091;51.432;6.880;2023-09-30T00:12:45;26.40;46.90
12060;DHT22;6091;51.432;6.880;2023-09-30T00:15:12;26.40;46.90
12060;DHT22;6091;51.432;6.880;2023-09-30T00:17:39;26.30;46.90
12060;DHT22;6091;51.432;6.880;2023-09-30T00:20:07;26.30;46.90
12060;DHT22;6091;51.432;6.880;2023-09-30T00:22:35;26.30;46.80
12060;DHT22;6091;51.432;6.880;2023-09-30T00:25:02;26.40;46.90
12060;DHT22;6091;51.432;6.880;2023-09-30T00:27:30;26.40;46.90
12060;DHT22;6091;51.432;6.880;2023-09-30T00:29:57;26.30;46.90
12060;DHT22;6091;51.432;6.880;2023-09-30T00:32:24;26.30;46.90
12060;DHT22;6091;51.432;6.880;2023-09-30T00:34:51;26.30;46.80
12060;DHT22;6091;51.432;6.880;2023-09-30T00:37:19;26.30;46.90
12060;DHT22;6091;51.432;6.880;2023-09-30T00:39:46;26.30;46.80
12060;DHT22;6091;51.432;6.880;2023-09-30T00:42:13;26.30;46.90
12060;DHT22;6091;51.432;6.880;2023-09-30T00:44:40;26.30;46.90
12060;DHT22;6091;51.432;6.880;2023-09-30T00:47:08;26.30;46.90
12060;DHT22;6091;51.432;6.880;2023-09-30T00:49:35;26.30;46.90
12060;DHT22;6091;51.432;6.880;2023-09-30T00:52:04;26.30;46.80
12060;DHT22;6091;51.432;6.880;2023-09-30T00:54:31;26.30;46.80
12060;DHT22;6091;51.432;6.880;2023-09-30T00:56:58;26.30;46.80
12060;DHT22;6091;51.432;6.880;2023-09-30T00:59:30;26.30;46.80
12060;DHT22;6091;51.432;6.880;2023-09-30T01:01:59;26.20;46.80
12060;DHT22;6091;51.432;6.880;2023-09-30T01:04:32;26.30;46.80
12060;DHT22;6091;51.432;6.880;2023-09-30T01:07:00;26.30;46.90
12060;DHT22;6091;51.432;6.880;2023-09-30T01:09:27;26.20;46.80
12060;DHT22;6091;51.432;6.880;2023-09-30T01:11:54;26.30;46.80
12060;DHT22;6091;51.432;6.880;2023-09-30T01:14:28;26.20;46.80
12060;DHT22;6091;51.432;6.880;2023-09-30T01:17:01;26.20;46.80
12060;DHT22;6091;51.432;6.880;2023-09-30T01:19:30;26.20;46.80
12060;DHT22;6091;51.432;6.880;2023-09-30T01:21:58;26.20;46.80
12060;DHT22;6091;51.432;6.880;2023-09-30T01:24:40;26.20;46.80
12060;DHT22;6091;51.432;6.880;2023-09-30T01:27:09;26.20;46.80
12060;DHT22;6091;51.432;6.880;2023-09-30T01:29:36;26.20;46.80
12060;DHT22;6091;51.432;6.880;2023-09-30T01:32:05;26.20;46.80
12060;DHT22;6091;51.432;6.880;2023-09-30T01:34:36;26.20;46.80
12060;DHT22;6091;51.432;6.880;2023-09-30T01:37:04;26.20;46.80
12060;DHT22;6091;51.432;6.880;2023-09-30T01:39:32;26.20;46.80
12060;DHT22;6091;51.432;6.880;2023-09-30T01:42:00;26.20;46.80
12060;DHT22;6091;51.432;6.880;2023-09-30T01:44:29;26.20;46.80
12060;DHT22;6091;51.432;6.880;2023-09-30T01:46:56;26.20;46.80
12060;DHT22;6091;51.432;6.880;2023-09-30T01:49:23;26.10;46.70
12060;DHT22;6091;51.432;6.880;2023-09-30T01:51:51;26.20;46.80
12060;DHT22;6091;51.432;6.880;2023-09-30T01:54:18;26.20;46.80
12060;DHT22;6091;51.432;6.880;2023-09-30T01:56:45;26.20;46.80
12060;DHT22;6091;51.432;6.880;2023-09-30T01:59:12;26.10;46.70
12060;DHT22;6091;51.432;6.880;2023-09-30T02:01:39;26.10;47.30
12060;DHT22;6091;51.432;6.880;2023-09-30T02:04:06;26.10;46.80
12060;DHT22;6091;51.432;6.880;2023-09-30T02:06:34;26.10;46.70
12060;DHT22;6091;51.432;6.880;2023-09-30T02:09:02;26.10;46.80
12060;DHT22;6091;51.432;6.880;2023-09-30T02:11:31;26.10;46.80
12060;DHT22;6091;51.432;6.880;2023-09-30T02:13:58;26.10;46.80
12060;DHT22;6091;51.432;6.880;2023-09-30T02:16:25;26.10;46.70
12060;DHT22;6091;51.432;6.880;2023-09-30T02:18:53;26.10;46.70
12060;DHT22;6091;51.432;6.880;2023-09-30T02:21:23;26.10;46.80
12060;DHT22;6091;51.432;6.880;2023-09-30T02:23:50;26.10;46.70
12060;DHT22;6091;51.432;6.880;2023-09-30T02:26:23;26.10;46.70
12060;DHT22;6091;51.432;6.880;2023-09-30T02:28:52;26.10;46.70
12060;DHT22;6091;51.432;6.880;2023-09-30T02:31:20;26.10;46.70
12060;DHT22;6091;51.432;6.880;2023-09-30T02:33:47;26.10;46.70
12060;DHT22;6091;51.432;6.880;2023-09-30T02:36:15;26.10;46.80
12060;DHT22;6091;51.432;6.880;2023-09-30T02:38:45;26.10;46.70
12060;DHT22;6091;51.432;6.880;2023-09-30T02:41:14;26.00;46.70
12060;DHT22;6091;51.432;6.880;2023-09-30T02:43:42;26.00;46.70
12060;DHT22;6091;51.432;6.880;2023-09-30T02:46:09;26.00;46.70
12060;DHT22;6091;51.432;6.880;2023-09-30T02:48:37;26.00;46.70
12060;DHT22;6091;51.432;6.880;2023-09-30T02:51:04;26.00;46.70
12060;DHT22;6091;51.432;6.880;2023-09-30T02:53:30;26.00;46.70
12060;DHT22;6091;51.432;6.880;2023-09-30T02:55:58;26.00;46.70
12060;DHT22;6091;51.432;6.880;2023-09-30T02:58:26;26.00;46.70
12060;DHT22;6091;51.432;6.880;2023-09-30T03:00:56;26.00;46.70
12060;DHT22;6091;51.432;6.880;2023-09-30T03:03:23;26.00;46.70
12060;DHT22;6091;51.432;6.880;2023-09-30T03:05:52;26.00;46.70
12060;DHT22;6091;51.432;6.880;2023-09-30T03:08:21;26.00;46.70
12060;DHT22;6091;51.432;6.880;2023-09-30T03:10:48;26.00;46.70
12060;DHT22;6091;51.432;6.880;2023-09-30T03:13:16;26.00;46.70
12060;DHT22;6091;51.432;6.880;2023-09-30T03:15:45;26.00;46.70
12060;DHT22;6091;51.432;6.880;2023-09-30T03:18:13;26.00;46.70
12060;DHT22;6091;51.432;6.880;2023-09-30T03:20:41;25.90;46.60
12060;DHT22;6091;51.432;6.880;2023-09-30T03:23:10;26.00;46.70
12060;DHT22;6091;51.432;6.880;2023-09-30T03:25:40;26.00;46.70
12060;DHT22;6091;51.432;6.880;2023-09-30T03:28:09;26.00;46.70
12060;DHT22;6091;51.432;6.880;2023-09-30T03:30:37;25.90;46.60
12060;DHT22;6091;51.432;6.880;2023-09-30T03:33:04;25.90;46.60
12060;DHT22;6091;51.432;6.880;2023-09-30T03:35:31;25.90;46.60
12060;DHT22;6091;51.432;6.880;2023-09-30T03:37:58;25.90;46.60
12060;DHT22;6091;51.432;6.880;2023-09-30T03:40:25;25.90;46.60
12060;DHT22;6091;51.432;6.880;2023-09-30T03:42:55;25.90;46.60
12060;DHT22;6091;51.432;6.880;2023-09-30T03:45:22;25.90;46.70
12060;DHT22;6091;51.432;6.880;2023-09-30T03:47:49;25.90;46.70
12060;DHT22;6091;51.432;6.880;2023-09-30T03:50:18;25.90;46.70
12060;DHT22;6091;51.432;6.880;2023-09-30T03:52:45;25.80;46.60
12060;DHT22;6091;51.432;6.880;2023-09-30T03:55:15;25.90;46.70
12060;DHT22;6091;51.432;6.880;2023-09-30T03:57:48;25.90;46.70
12060;DHT22;6091;51.432;6.880;2023-09-30T04:00:16;25.90;46.70
12060;DHT22;6091;51.432;6.880;2023-09-30T04:02:48;25.90;46.70
12060;DHT22;6091;51.432;6.880;2023-09-30T04:05:18;25.80;46.60
12060;DHT22;6091;51.432;6.880;2023-09-30T04:07:46;25.80;46.60
12060;DHT22;6091;51.432;6.880;2023-09-30T04:10:14;25.80;46.60
12060;DHT22;6091;51.432;6.880;2023-09-30T04:12:41;25.80;46.60
12060;DHT22;6091;51.432;6.880;2023-09-30T04:15:09;25.80;46.60
12060;DHT22;6091;51.432;6.880;2023-09-30T04:17:39;25.80;46.60
12060;DHT22;6091;51.432;6.880;2023-09-30T04:20:08;25.80;46.60
12060;DHT22;6091;51.432;6.880;2023-09-30T04:22:45;25.80;46.60
12060;DHT22;6091;51.432;6.880;2023-09-30T04:25:16;25.80;46.60
12060;DHT22;6091;51.432;6.880;2023-09-30T04:27:45;25.80;46.60
12060;DHT22;6091;51.432;6.880;2023-09-30T04:30:15;25.80;46.60
12060;DHT22;6091;51.432;6.880;2023-09-30T04:32:44;25.80;46.60
12060;DHT22;6091;51.432;6.880;2023-09-30T04:35:12;25.80;46.60
12060;DHT22;6091;51.432;6.880;2023-09-30T04:37:39;25.80;46.60
12060;DHT22;6091;51.432;6.880;2023-09-30T04:40:08;25.80;46.60
12060;DHT22;6091;51.432;6.880;2023-09-30T04:42:47;25.80;46.60
12060;DHT22;6091;51.432;6.880;2023-09-30T04:45:15;25.80;46.60
12060;DHT22;6091;51.432;6.880;2023-09-30T04:47:51;25.80;46.60
12060;DHT22;6091;51.432;6.880;2023-09-30T04:50:25;25.80;46.60
12060;DHT22;6091;51.432;6.880;2023-09-30T04:52:52;25.80;46.60
12060;DHT22;6091;51.432;6.880;2023-09-30T04:55:20;25.80;46.60
12060;DHT22;6091;51.432;6.880;2023-09-30T04:57:47;25.80;46.60
12060;DHT22;6091;51.432;6.880;2023-09-30T05:00:17;25.80;46.60
12060;DHT22;6091;51.432;6.880;2023-09-30T05:02:45;25.80;46.60
12060;DHT22;6091;51.432;6.880;2023-09-30T05:05:16;25.70;46.60
12060;DHT22;6091;51.432;6.880;2023-09-30T05:07:43;25.80;46.70
12060;DHT22;6091;51.432;6.880;2023-09-30T05:10:10;25.70;46.60
12060;DHT22;6091;51.432;6.880;2023-09-30T05:12:40;25.70;46.60
12060;DHT22;6091;51.432;6.880;2023-09-30T05:15:14;25.70;46.60
12060;DHT22;6091;51.432;6.880;2023-09-30T05:17:43;25.70;46.60
12060;DHT22;6091;51.432;6.880;2023-09-30T05:20:11;25.70;46.60
12060;DHT22;6091;51.432;6.880;2023-09-30T05:22:39;25.70;46.60
12060;DHT22;6091;51.432;6.880;2023-09-30T05:25:14;25.70;46.60
12060;DHT22;6091;51.432;6.880;2023-09-30T05:27:46;25.70;46.60
12060;DHT22;6091;51.432;6.880;2023-09-30T05:30:16;25.70;46.60
12060;DHT22;6091;51.432;6.880;2023-09-30T05:32:46;25.70;46.60
12060;DHT22;6091;51.432;6.880;2023-09-30T05:35:14;25.70;46.60
12060;DHT22;6091;51.432;6.880;2023-09-30T05:37:44;25.70;46.60
12060;DHT22;6091;51.432;6.880;2023-09-30T05:40:14;25.70;46.60
12060;DHT22;6091;51.432;6.880;2023-09-30T05:42:56;25.60;46.50
12060;DHT22;6091;51.432;6.880;2023-09-30T05:45:28;25.70;46.60
12060;DHT22;6091;51.432;6.880;2023-09-30T05:47:58;25.70;46.60
12060;DHT22;6091;51.432;6.880;2023-09-30T05:50:29;25.60;46.50
12060;DHT22;6091;51.432;6.880;2023-09-30T05:52:58;25.70;46.60
12060;DHT22;6091;51.432;6.880;2023-09-30T05:55:25;25.70;46.60
12060;DHT22;6091;51.432;6.880;2023-09-30T05:57:53;25.60;46.60
12060;DHT22;6091;51.432;6.880;2023-09-30T06:00:22;25.60;46.50
12060;DHT22;6091;51.432;6.880;2023-09-30T06:03:02;25.60;46.50
12060;DHT22;6091;51.432;6.880;2023-09-30T06:05:33;25.60;46.50
12060;DHT22;6091;51.432;6.880;2023-09-30T06:08:04;25.60;46.50
12060;DHT22;6091;51.432;6.880;2023-09-30T06:10:33;25.60;46.50
12060;DHT22;6091;51.432;6.880;2023-09-30T06:13:00;27.50;47.70
12060;DHT22;6091;51.432;6.880;2023-09-30T06:15:29;25.60;46.50
12060;DHT22;6091;51.432;6.880;2023-09-30T06:17:56;25.60;46.60
12060;DHT22;6091;51.432;6.880;2023-09-30T06:20:25;25.60;46.50
12060;DHT22;6091;51.432;6.880;2023-09-30T06:22:54;25.60;46.60
12060;DHT22;6091;51.432;6.880;2023-09-30T06:25:22;25.60;46.50
12060;DHT22;6091;51.432;6.880;2023-09-30T06:27:54;25.60;46.60
12060;DHT22;6091;51.432;6.880;2023-09-30T06:30:22;25.60;46.50
12060;DHT22;6091;51.432;6.880;2023-09-30T06:32:57;25.60;46.60
12060;DHT22;6091;51.432;6.880;2023-09-30T06:35:28;25.60;46.50
12060;DHT22;6091;51.432;6.880;2023-09-30T06:37:57;25.60;46.50
12060;DHT22;6091;51.432;6.880;2023-09-30T06:40:24;25.60;46.50
12060;DHT22;6091;51.432;6.880;2023-09-30T06:42:51;25.60;46.50
12060;DHT22;6091;51.432;6.880;2023-09-30T06:45:19;25.60;46.50
12060;DHT22;6091;51.432;6.880;2023-09-30T06:47:49;25.70;46.60
12060;DHT22;6091;51.432;6.880;2023-09-30T06:50:16;25.70;46.60
12060;DHT22;6091;51.432;6.880;2023-09-30T06:52:44;25.60;46.50
12060;DHT22;6091;51.432;6.880;2023-09-30T06:55:17;25.60;46.50
12060;DHT22;6091;51.432;6.880;2023-09-30T06:57:44;25.60;46.50
12060;DHT22;6091;51.432;6.880;2023-09-30T07:00:15;25.60;46.50
12060;DHT22;6091;51.432;6.880;2023-09-30T07:02:43;25.60;46.50
12060;DHT22;6091;51.432;6.880;2023-09-30T07:05:12;25.70;46.60
12060;DHT22;6091;51.432;6.880;2023-09-30T07:07:41;25.70;46.60
12060;DHT22;6091;51.432;6.880;2023-09-30T07:10:10;25.60;46.50
12060;DHT22;6091;51.432;6.880;2023-09-30T07:12:38;25.70;46.50
12060;DHT22;6091;51.432;6.880;2023-09-30T07:15:07;25.70;46.50
12060;DHT22;6091;51.432;6.880;2023-09-30T07:17:35;25.70;46.60
12060;DHT22;6091;51.432;6.880;2023-09-30T07:20:04;25.70;46.50
12060;DHT22;6091;51.432;6.880;2023-09-30T07:22:33;25.70;46.40
12060;DHT22;6091;51.432;6.880;2023-09-30T07:25:15;25.70;46.40
12060;DHT22;6091;51.432;6.880;2023-09-30T07:27:44;25.70;46.30
12060;DHT22;6091;51.432;6.880;2023-09-30T07:30:13;25.70;46.30
12060;DHT22;6091;51.432;6.880;2023-09-30T07:32:45;25.70;46.30
12060;DHT22;6091;51.432;6.880;2023-09-30T07:35:12;25.70;46.30
12060;DHT22;6091;51.432;6.880;2023-09-30T07:37:42;25.70;46.20
12060;DHT22;6091;51.432;6.880;2023-09-30T07:40:11;25.70;46.20
12060;DHT22;6091;51.432;6.880;2023-09-30T07:42:39;25.70;46.20
12060;DHT22;6091;51.432;6.880;2023-09-30T07:45:10;25.70;46.20
12060;DHT22;6091;51.432;6.880;2023-09-30T07:47:38;25.70;46.10
12060;DHT22;6091;51.432;6.880;2023-09-30T07:50:06;25.70;46.10
12060;DHT22;6091;51.432;6.880;2023-09-30T07:52:37;25.70;46.20
12060;DHT22;6091;51.432;6.880;2023-09-30T07:55:07;25.70;46.10
12060;DHT22;6091;51.432;6.880;2023-09-30T07:57:36;25.70;46.10
12060;DHT22;6091;51.432;6.880;2023-09-30T08:00:04;25.70;46.10
12060;DHT22;6091;51.432;6.880;2023-09-30T08:02:36;25.70;46.10
12060;DHT22;6091;51.432;6.880;2023-09-30T08:05:05;25.70;46.10
12060;DHT22;6091;51.432;6.880;2023-09-30T08:07:34;25.70;46.00
12060;DHT22;6091;51.432;6.880;2023-09-30T08:10:02;25.70;46.10
12060;DHT22;6091;51.432;6.880;2023-09-30T08:12:39;25.80;46.10
12060;DHT22;6091;51.432;6.880;2023-09-30T08:15:08;25.80;46.10
12060;DHT22;6091;51.432;6.880;2023-09-30T08:17:39;25.70;46.00
12060;DHT22;6091;51.432;6.880;2023-09-30T08:20:07;25.80;46.10
12060;DHT22;6091;51.432;6.880;2023-09-30T08:22:38;25.80;46.00
12060;DHT22;6091;51.432;6.880;2023-09-30T08:25:06;25.80;46.00
12060;DHT22;6091;51.432;6.880;2023-09-30T08:27:35;25.80;46.00
12060;DHT22;6091;51.432;6.880;2023-09-30T08:30:03;25.70;45.90
12060;DHT22;6091;51.432;6.880;2023-09-30T08:32:34;25.80;46.00
12060;DHT22;6091;51.432;6.880;2023-09-30T08:35:03;25.80;46.00
12060;DHT22;6091;51.432;6.880;2023-09-30T08:37:30;25.80;45.90
12060;DHT22;6091;51.432;6.880;2023-09-30T08:39:58;25.80;46.00
12060;DHT22;6091;51.432;6.880;2023-09-30T08:42:27;25.80;45.90
12060;DHT22;6091;51.432;6.880;2023-09-30T08:45:00;25.80;45.90
12060;DHT22;6091;51.432;6.880;2023-09-30T08:47:28;25.80;45.90
12060;DHT22;6091;51.432;6.880;2023-09-30T08:49:58;25.90;45.90
12060;DHT22;6091;51.432;6.880;2023-09-30T08:52:33;25.90;45.90
12060;DHT22;6091;51.432;6.880;2023-09-30T08:55:07;25.90;45.90
12060;DHT22;6091;51.432;6.880;2023-09-30T08:57:42;25.90;45.90
12060;DHT22;6091;51.432;6.880;2023-09-30T09:00:11;25.90;45.80
12060;DHT22;6091;51.432;6.880;2023-09-30T09:02:41;25.90;45.90
12060;DHT22;6091;51.432;6.880;2023-09-30T09:05:09;26.00;46.00
12060;DHT22;6091;51.432;6.880;2023-09-30T09:07:37;26.00;45.90
12060;DHT22;6091;51.432;6.880;2023-09-30T09:10:09;26.00;45.90
12060;DHT22;6091;51.432;6.880;2023-09-30T09:12:38;26.00;46.00
12060;DHT22;6091;51.432;6.880;2023-09-30T09:15:19;26.00;45.90
12060;DHT22;6091;51.432;6.880;2023-09-30T09:17:51;26.00;46.50
12060;DHT22;6091;51.432;6.880;2023-09-30T09:20:24;26.10;45.90
12060;DHT22;6091;51.432;6.880;2023-09-30T09:22:55;26.10;45.80
12060;DHT22;6091;51.432;6.880;2023-09-30T09:25:25;26.10;45.70
12060;DHT22;6091;51.432;6.880;2023-09-30T09:27:53;26.10;45.70
12060;DHT22;6091;51.432;6.880;2023-09-30T09:30:25;26.10;45.70
12060;DHT22;6091;51.432;6.880;2023-09-30T09:33:03;26.10;45.70
12060;DHT22;6091;51.432;6.880;2023-09-30T09:35:33;26.10;45.60
12060;DHT22;6091;51.432;6.880;2023-09-30T09:38:06;26.20;45.10
12060;DHT22;6091;51.432;6.880;2023-09-30T09:40:38;26.20;45.70
12060;DHT22;6091;51.432;6.880;2023-09-30T09:43:07;26.20;45.60
12060;DHT22;6091;51.432;6.880;2023-09-30T09:45:37;26.20;45.80
12060;DHT22;6091;51.432;6.880;2023-09-30T09:48:05;26.20;46.30
12060;DHT22;6091;51.432;6.880;2023-09-30T09:50:34;26.20;45.60
12060;DHT22;6091;51.432;6.880;2023-09-30T09:53:05;26.30;45.50
12060;DHT22;6091;51.432;6.880;2023-09-30T09:55:36;26.30;45.50
12060;DHT22;6091;51.432;6.880;2023-09-30T09:58:07;26.30;45.40
12060;DHT22;6091;51.432;6.880;2023-09-30T10:00:35;26.40;45.60
12060;DHT22;6091;51.432;6.880;2023-09-30T10:03:03;26.40;45.80
12060;DHT22;6091;51.432;6.880;2023-09-30T10:05:31;26.40;45.90
12060;DHT22;6091;51.432;6.880;2023-09-30T10:08:13;26.60;45.10
12060;DHT22;6091;51.432;6.880;2023-09-30T10:10:44;26.60;45.10
12060;DHT22;6091;51.432;6.880;2023-09-30T10:16:56;26.70;44.80
12060;DHT22;6091;51.432;6.880;2023-09-30T10:19:23;26.80;44.70
12060;DHT22;6091;51.432;6.880;2023-09-30T10:24:56;26.90;44.40
12060;DHT22;6091;51.432;6.880;2023-09-30T10:29:58;26.90;44.40
12060;DHT22;6091;51.432;6.880;2023-09-30T10:33:07;26.90;43.90
12060;DHT22;6091;51.432;6.880;2023-09-30T10:40:49;27.00;43.50
12060;DHT22;6091;51.432;6.880;2023-09-30T10:46:00;27.10;43.50
12060;DHT22;6091;51.432;6.880;2023-09-30T10:50:56;27.10;43.50
12060;DHT22;6091;51.432;6.880;2023-09-30T10:53:25;27.10;43.50
12060;DHT22;6091;51.432;6.880;2023-09-30T10:56:00;27.30;43.30
12060;DHT22;6091;51.432;6.880;2023-09-30T10:58:43;27.20;43.70
12060;DHT22;6091;51.432;6.880;2023-09-30T11:01:23;27.40;43.50
12060;DHT22;6091;51.432;6.880;2023-09-30T11:04:01;27.40;43.10
12060;DHT22;6091;51.432;6.880;2023-09-30T11:06:32;27.50;43.30
12060;DHT22;6091;51.432;6.880;2023-09-30T11:09:00;27.70;42.70
12060;DHT22;6091;51.432;6.880;2023-09-30T11:14:25;27.80;42.50
12060;DHT22;6091;51.432;6.880;2023-09-30T11:17:00;27.80;42.50
12060;DHT22;6091;51.432;6.880;2023-09-30T11:19:47;27.80;42.20
12060;DHT22;6091;51.432;6.880;2023-09-30T11:22:15;27.70;42.00
12060;DHT22;6091;51.432;6.880;2023-09-30T11:27:13;27.70;41.70
12060;DHT22;6091;51.432;6.880;2023-09-30T11:29:51;27.60;41.50
12060;DHT22;6091;51.432;6.880;2023-09-30T11:32:28;27.60;41.70
12060;DHT22;6091;51.432;6.880;2023-09-30T11:34:56;27.50;41.60
12060;DHT22;6091;51.432;6.880;2023-09-30T11:37:24;27.60;42.10
12060;DHT22;6091;51.432;6.880;2023-09-30T11:40:12;27.50;42.50
12060;DHT22;6091;51.432;6.880;2023-09-30T11:43:09;27.70;42.50
12060;DHT22;6091;51.432;6.880;2023-09-30T11:45:41;27.80;42.50
12060;DHT22;6091;51.432;6.880;2023-09-30T11:48:18;28.00;42.50
12060;DHT22;6091;51.432;6.880;2023-09-30T11:50:49;28.00;41.90
12060;DHT22;6091;51.432;6.880;2023-09-30T11:53:17;28.40;42.30
12060;DHT22;6091;51.432;6.880;2023-09-30T11:55:47;28.50;42.00
12060;DHT22;6091;51.432;6.880;2023-09-30T11:58:15;28.50;42.50
12060;DHT22;6091;51.432;6.880;2023-09-30T12:00:45;28.70;42.50
12060;DHT22;6091;51.432;6.880;2023-09-30T12:03:12;29.00;42.30
12060;DHT22;6091;51.432;6.880;2023-09-30T12:05:42;29.10;42.10
12060;DHT22;6091;51.432;6.880;2023-09-30T12:08:12;29.00;41.90
12060;DHT22;6091;51.432;6.880;2023-09-30T12:10:39;29.20;41.60
12060;DHT22;6091;51.432;6.880;2023-09-30T12:13:07;29.30;41.50
12060;DHT22;6091;51.432;6.880;2023-09-30T12:15:34;29.40;40.60
12060;DHT22;6091;51.432;6.880;2023-09-30T12:18:01;29.40;40.50
12060;DHT22;6091;51.432;6.880;2023-09-30T12:20:32;29.50;40.80
12060;DHT22;6091;51.432;6.880;2023-09-30T12:25:27;29.40;40.00
12060;DHT22;6091;51.432;6.880;2023-09-30T12:27:54;29.30;39.80
12060;DHT22;6091;51.432;6.880;2023-09-30T12:30:22;29.20;39.40
12060;DHT22;6091;51.432;6.880;2023-09-30T12:32:49;29.20;39.90
12060;DHT22;6091;51.432;6.880;2023-09-30T12:35:16;29.20;40.00
12060;DHT22;6091;51.432;6.880;2023-09-30T12:37:44;29.20;39.70
12060;DHT22;6091;51.432;6.880;2023-09-30T12:40:12;29.20;40.00
12060;DHT22;6091;51.432;6.880;2023-09-30T12:42:44;29.20;40.10
12060;DHT22;6091;51.432;6.880;2023-09-30T12:45:11;29.20;39.40
12060;DHT22;6091;51.432;6.880;2023-09-30T12:47:40;29.20;39.30
12060;DHT22;6091;51.432;6.880;2023-09-30T12:50:07;29.10;39.20
12060;DHT22;6091;51.432;6.880;2023-09-30T12:52:38;29.10;39.40
12060;DHT22;6091;51.432;6.880;2023-09-30T12:55:06;29.10;39.30
12060;DHT22;6091;51.432;6.880;2023-09-30T12:57:33;29.00;39.20
12060;DHT22;6091;51.432;6.880;2023-09-30T13:02:30;29.00;39.30
12060;DHT22;6091;51.432;6.880;2023-09-30T13:04:57;28.90;39.20
12060;DHT22;6091;51.432;6.880;2023-09-30T13:07:24;28.80;39.20
12060;DHT22;6091;51.432;6.880;2023-09-30T13:09:52;28.90;39.40
12060;DHT22;6091;51.432;6.880;2023-09-30T13:14:47;28.80;39.20
12060;DHT22;6091;51.432;6.880;2023-09-30T13:17:14;28.80;39.60
12060;DHT22;6091;51.432;6.880;2023-09-30T13:19:41;28.70;39.20
12060;DHT22;6091;51.432;6.880;2023-09-30T13:22:09;28.60;39.00
12060;DHT22;6091;51.432;6.880;2023-09-30T13:27:13;28.50;39.00
12060;DHT22;6091;51.432;6.880;2023-09-30T13:29:45;28.50;38.90
12060;DHT22;6091;51.432;6.880;2023-09-30T13:32:12;28.40;38.90
12060;DHT22;6091;51.432;6.880;2023-09-30T13:34:41;28.40;39.00
12060;DHT22;6091;51.432;6.880;2023-09-30T13:37:08;28.40;39.00
12060;DHT22;6091;51.432;6.880;2023-09-30T13:39:35;28.40;39.00
12060;DHT22;6091;51.432;6.880;2023-09-30T13:42:02;28.30;39.00
12060;DHT22;6091;51.432;6.880;2023-09-30T13:44:29;28.20;38.90
12060;DHT22;6091;51.432;6.880;2023-09-30T13:46:56;28.20;38.90
12060;DHT22;6091;51.432;6.880;2023-09-30T13:49:23;28.20;39.00
12060;DHT22;6091;51.432;6.880;2023-09-30T13:51:51;28.20;39.50
12060;DHT22;6091;51.432;6.880;2023-09-30T13:54:18;28.10;39.00
12060;DHT22;6091;51.432;6.880;2023-09-30T13:56:45;28.10;39.00
12060;DHT22;6091;51.432;6.880;2023-09-30T13:59:12;28.00;39.50
12060;DHT22;6091;51.432;6.880;2023-09-30T14:01:39;28.10;39.10
12060;DHT22;6091;51.432;6.880;2023-09-30T14:04:08;28.00;39.10
12060;DHT22;6091;51.432;6.880;2023-09-30T14:06:36;28.00;39.10
12060;DHT22;6091;51.432;6.880;2023-09-30T14:09:06;27.90;39.50
12060;DHT22;6091;51.432;6.880;2023-09-30T14:11:39;27.90;39.60
12060;DHT22;6091;51.432;6.880;2023-09-30T14:14:06;27.80;39.00
12060;DHT22;6091;51.432;6.880;2023-09-30T14:16:36;27.90;39.10
12060;DHT22;6091;51.432;6.880;2023-09-30T14:19:04;27.80;39.10
12060;DHT22;6091;51.432;6.880;2023-09-30T14:21:32;27.80;39.10
12060;DHT22;6091;51.432;6.880;2023-09-30T14:23:59;27.80;39.00
12060;DHT22;6091;51.432;6.880;2023-09-30T14:26:28;27.90;39.10
12060;DHT22;6091;51.432;6.880;2023-09-30T14:28:55;27.80;39.10
12060;DHT22;6091;51.432;6.880;2023-09-30T14:31:23;27.70;39.60
12060;DHT22;6091;51.432;6.880;2023-09-30T14:33:50;27.70;39.00
12060;DHT22;6091;51.432;6.880;2023-09-30T14:36:18;27.70;39.10
12060;DHT22;6091;51.432;6.880;2023-09-30T14:38:45;27.60;39.50
12060;DHT22;6091;51.432;6.880;2023-09-30T14:41:19;27.70;39.10
12060;DHT22;6091;51.432;6.880;2023-09-30T14:43:46;27.60;39.50
12060;DHT22;6091;51.432;6.880;2023-09-30T14:46:13;27.60;39.10
12060;DHT22;6091;51.432;6.880;2023-09-30T14:48:41;27.70;39.10
12060;DHT22;6091;51.432;6.880;2023-09-30T14:51:09;27.50;39.00
12060;DHT22;6091;51.432;6.880;2023-09-30T14:53:36;27.60;39.10
12060;DHT22;6091;51.432;6.880;2023-09-30T14:56:03;27.60;39.60
12060;DHT22;6091;51.432;6.880;2023-09-30T14:58:32;27.60;39.60
12060;DHT22;6091;51.432;6.880;2023-09-30T15:03:27;27.50;39.10
12060;DHT22;6091;51.432;6.880;2023-09-30T15:05:59;27.50;39.70
12060;DHT22;6091;51.432;6.880;2023-09-30T15:08:28;27.60;39.70
12060;DHT22;6091;51.432;6.880;2023-09-30T15:10:56;27.50;39.70
12060;DHT22;6091;51.432;6.880;2023-09-30T15:13:23;27.50;39.70
12060;DHT22;6091;51.432;6.880;2023-09-30T15:15:50;27.50;39.90
12060;DHT22;6091;51.432;6.880;2023-09-30T15:18:17;27.40;39.30
12060;DHT22;6091;51.432;6.880;2023-09-30T15:20:45;27.50;39.90
12060;DHT22;6091;51.432;6.880;2023-09-30T15:23:13;27.40;39.40
12060;DHT22;6091;51.432;6.880;2023-09-30T15:25:44;27.40;40.00
12060;DHT22;6091;51.432;6.880;2023-09-30T15:28:12;27.40;39.50
12060;DHT22;6091;51.432;6.880;2023-09-30T15:30:40;27.40;40.10
12060;DHT22;6091;51.432;6.880;2023-09-30T15:33:08;27.40;40.20
12060;DHT22;6091;51.432;6.880;2023-09-30T15:35:38;27.40;39.60
12060;DHT22;6091;51.432;6.880;2023-09-30T15:38:06;27.30;39.60
12060;DHT22;6091;51.432;6.880;2023-09-30T15:40:53;27.30;40.10
12060;DHT22;6091;51.432;6.880;2023-09-30T15:45:53;27.30;39.70
12060;DHT22;6091;51.432;6.880;2023-09-30T15:48:20;27.30;40.30
12060;DHT22;6091;51.432;6.880;2023-09-30T15:53:15;27.20;39.70
12060;DHT22;6091;51.432;6.880;2023-09-30T15:55:43;27.30;40.30
12060;DHT22;6091;51.432;6.880;2023-09-30T15:58:10;27.30;40.30
12060;DHT22;6091;51.432;6.880;2023-09-30T16:00:38;27.10;39.60
12060;DHT22;6091;51.432;6.880;2023-09-30T16:03:07;27.20;39.80
12060;DHT22;6091;51.432;6.880;2023-09-30T16:05:36;27.20;40.30
12060;DHT22;6091;51.432;6.880;2023-09-30T16:08:08;27.10;39.70
12060;DHT22;6091;51.432;6.880;2023-09-30T16:10:36;27.10;39.80
12060;DHT22;6091;51.432;6.880;2023-09-30T16:13:05;27.10;40.30
12060;DHT22;6091;51.432;6.880;2023-09-30T16:15:37;27.00;39.70
12060;DHT22;6091;51.432;6.880;2023-09-30T16:20:33;27.10;39.80
12060;DHT22;6091;51.432;6.880;2023-09-30T16:23:01;27.00;39.70
12060;DHT22;6091;51.432;6.880;2023-09-30T16:25:28;27.10;40.40
12060;DHT22;6091;51.432;6.880;2023-09-30T16:27:56;27.10;40.40
12060;DHT22;6091;51.432;6.880;2023-09-30T16:30:27;27.10;39.90
12060;DHT22;6091;51.432;6.880;2023-09-30T16:32:57;27.00;40.40
12060;DHT22;6091;51.432;6.880;2023-09-30T16:37:52;26.90;39.80
12060;DHT22;6091;51.432;6.880;2023-09-30T16:40:20;27.00;39.90
12060;DHT22;6091;51.432;6.880;2023-09-30T16:42:48;27.00;40.50
12060;DHT22;6091;51.432;6.880;2023-09-30T16:45:15;27.00;39.90